Terminal Aerodrome Forecast
Issued by NWS Sioux Falls, SD

Home | Current Version | Previous Version | Text Only | Print | Product List | Glossary On
Versions: 1 2 3 4 5 6 7 8 9 10 11 12 13 14
000
FTUS43 KFSD 310520
TAFHON
TAF
KHON 310520Z 3106/0106 35008KT P6SM BKN250
     FM310900 01010KT P6SM OVC007
     FM311600 04014KT P6SM SCT008 OVC020
     FM010400 02017KT 3SM -SN OVC020=

USA.gov is the U.S. government's official web portal to all federal, state and local government web resources and services.